createdAt,value
2018-05-11T08:01:55.359Z,24.23
2018-05-11T08:04:21.755Z,20.88
2018-05-11T08:06:48.149Z,22.37
2018-05-11T08:09:14.521Z,22.00
2018-05-11T08:11:40.937Z,20.90
2018-05-11T08:14:07.376Z,20.20
2018-05-11T08:16:33.758Z,20.33
2018-05-11T08:19:00.168Z,23.10
2018-05-11T08:21:27.319Z,22.25
2018-05-11T08:23:54.454Z,22.83
2018-05-11T08:26:20.844Z,23.17
2018-05-11T08:28:47.263Z,23.87
2018-05-11T08:31:15.745Z,23.48
2018-05-11T08:33:46.613Z,24.85
2018-05-11T08:36:14.373Z,24.23
2018-05-11T08:38:41.109Z,23.90
2018-05-11T08:41:07.837Z,24.40
2018-05-11T08:43:35.220Z,24.77
2018-05-11T08:46:02.826Z,25.37
2018-05-11T08:48:29.949Z,23.80
2018-05-11T08:50:56.396Z,22.52
2018-05-11T08:53:23.203Z,23.92
2018-05-11T08:55:50.809Z,24.70
2018-05-11T08:58:17.372Z,24.87
2018-05-11T09:00:43.808Z,23.90
2018-05-11T09:03:10.188Z,24.20
2018-05-11T09:05:36.598Z,23.38
2018-05-11T09:08:02.993Z,23.92
2018-05-11T09:10:30.499Z,22.10
2018-05-11T09:12:59.262Z,22.35
2018-05-11T09:15:25.733Z,23.05
2018-05-11T09:17:54.301Z,23.53
2018-05-11T09:20:21.841Z,23.58
2018-05-11T09:22:48.236Z,23.87
2018-05-11T09:25:14.611Z,23.65
2018-05-11T09:27:41.013Z,21.83
2018-05-11T09:30:08.132Z,21.50
2018-05-11T09:32:34.551Z,22.20
2018-05-11T09:35:00.945Z,22.15
2018-05-11T09:37:28.105Z,24.50
2018-05-11T09:39:55.237Z,23.12
2018-05-11T09:42:22.404Z,23.10
2018-05-11T09:44:49.585Z,22.87
2018-05-11T09:47:16.171Z,23.52
2018-05-11T09:49:42.561Z,21.73
2018-05-11T09:52:08.975Z,20.50
2018-05-11T09:54:35.369Z,22.37
2018-05-11T09:57:01.759Z,23.20
2018-05-11T09:59:28.172Z,22.20
2018-05-11T10:01:55.309Z,21.35
2018-05-11T10:04:22.497Z,21.95
2018-05-11T10:06:48.868Z,20.58
2018-05-11T10:09:15.280Z,21.42
2018-05-11T10:11:41.717Z,20.00
2018-05-11T10:14:08.130Z,22.02
2018-05-11T10:16:34.526Z,20.60
2018-05-11T10:19:01.681Z,21.77
2018-05-11T10:21:28.801Z,21.93
2018-05-11T10:23:55.216Z,21.35
2018-05-11T10:26:21.596Z,21.65
2018-05-11T10:28:48.829Z,22.45
2018-05-11T10:31:15.193Z,19.75
2018-05-11T10:33:42.324Z,21.40
2018-05-11T10:36:08.708Z,20.88
2018-05-11T10:38:35.117Z,21.77
2018-05-11T10:41:02.253Z,18.80
2018-05-11T10:43:29.386Z,21.30
2018-05-11T10:45:55.856Z,20.35
2018-05-11T10:48:23.012Z,20.57
2018-05-11T10:50:49.413Z,19.42
2018-05-11T10:53:15.848Z,22.13
2018-05-11T10:55:42.254Z,19.95
2018-05-11T10:58:08.641Z,22.23
2018-05-11T11:00:35.800Z,20.15
2018-05-11T11:03:02.188Z,21.90
2018-05-11T11:05:28.600Z,20.02
2018-05-11T11:07:54.984Z,20.70
2018-05-11T11:10:22.155Z,21.52
2018-05-11T11:12:48.540Z,21.73
2018-05-11T11:15:14.967Z,21.65
2018-05-11T11:17:41.392Z,21.20
2018-05-11T11:20:07.785Z,20.98
2018-05-11T11:22:34.935Z,22.10
2018-05-11T11:25:02.119Z,21.25
2018-05-11T11:27:28.520Z,21.27
2018-05-11T11:29:55.641Z,20.50
2018-05-11T11:32:22.038Z,22.30
2018-05-11T11:34:48.459Z,23.52
2018-05-11T11:37:15.577Z,20.98
2018-05-11T11:39:42.712Z,21.48
2018-05-11T11:42:09.125Z,22.80
2018-05-11T11:44:35.552Z,22.85
2018-05-11T11:47:01.969Z,20.65
2018-05-11T11:49:28.360Z,22.42
2018-05-11T11:51:54.739Z,22.23
2018-05-11T11:54:21.127Z,21.87
2018-05-11T11:56:48.262Z,25.40
2018-05-11T11:59:14.660Z,20.75
2018-05-11T12:01:41.113Z,20.12
2018-05-11T12:04:08.195Z,20.73
2018-05-11T12:06:34.597Z,19.50
2018-05-11T12:09:01.034Z,21.52
2018-05-11T12:11:27.416Z,19.10
2018-05-11T12:13:54.612Z,19.55
2018-05-11T12:16:21.021Z,20.27
2018-05-11T12:18:47.432Z,21.15
2018-05-11T12:21:14.601Z,20.85
2018-05-11T12:23:40.988Z,18.60
2018-05-11T12:26:07.421Z,18.50
2018-05-11T12:28:33.828Z,15.95
2018-05-11T12:31:00.288Z,17.77
2018-05-11T12:33:26.667Z,16.70
2018-05-11T12:35:53.844Z,17.65
2018-05-11T12:38:20.340Z,18.85
2018-05-11T12:40:47.550Z,17.45
2018-05-11T12:43:14.050Z,17.30
2018-05-11T12:45:40.460Z,16.45
2018-05-11T12:48:07.627Z,16.00
2018-05-11T12:50:34.817Z,16.35
2018-05-11T12:53:01.257Z,18.90
2018-05-11T12:55:27.665Z,18.70
2018-05-11T12:57:54.040Z,17.73
2018-05-11T13:00:20.445Z,17.40
2018-05-11T13:02:46.812Z,16.00
2018-05-11T13:05:13.271Z,17.63
2018-05-11T13:07:40.392Z,15.55
2018-05-11T13:10:06.837Z,15.07
2018-05-11T13:12:33.223Z,16.17
2018-05-11T13:14:59.604Z,16.05
2018-05-11T13:17:26.024Z,15.52
2018-05-11T13:19:52.447Z,15.80
2018-05-11T13:22:18.841Z,15.20
2018-05-11T13:24:45.964Z,15.40
2018-05-11T13:27:12.370Z,14.60
2018-05-11T13:29:38.749Z,15.48
2018-05-11T13:32:05.155Z,15.10
2018-05-11T13:34:31.560Z,12.52
2018-05-11T13:36:57.972Z,11.93
2018-05-11T13:39:24.409Z,12.70
2018-05-11T13:41:50.816Z,13.70
2018-05-11T13:44:18.046Z,12.32
2018-05-11T13:46:44.468Z,14.30
2018-05-11T13:49:10.875Z,13.40
2018-05-11T13:51:37.294Z,14.93
2018-05-11T13:54:03.720Z,14.27
2018-05-11T13:56:30.183Z,12.88
2018-05-11T13:58:56.575Z,12.27
2018-05-11T14:01:23.784Z,14.73
2018-05-11T14:03:50.216Z,14.20
2018-05-11T14:06:16.624Z,14.20
2018-05-11T14:08:43.010Z,15.10
2018-05-11T14:11:09.448Z,12.93
2018-05-11T14:13:36.572Z,13.80
2018-05-11T14:16:03.015Z,14.82
2018-05-11T14:18:29.420Z,13.50
2018-05-11T14:20:55.792Z,14.98
2018-05-11T14:23:22.232Z,12.80
2018-05-11T14:25:48.664Z,12.10
2018-05-11T14:28:15.079Z,10.73
2018-05-11T14:30:41.508Z,12.87
2018-05-11T14:33:07.916Z,13.50
2018-05-11T14:35:34.305Z,13.07
2018-05-11T14:38:00.857Z,10.20
2018-05-11T17:04:20.599Z,10.43
2018-05-11T17:06:47.744Z,10.27
2018-05-11T17:09:14.124Z,11.20
2018-05-11T17:11:40.544Z,9.00
2018-05-11T17:14:06.951Z,8.53
2018-05-11T17:16:34.149Z,8.03
2018-05-11T17:19:01.256Z,7.77
2018-05-11T17:21:28.371Z,8.47
2018-05-11T17:23:54.769Z,8.77
2018-05-11T17:26:21.156Z,9.43
2018-05-11T17:28:47.557Z,10.30
2018-05-11T17:31:13.939Z,7.80
2018-05-11T17:33:41.085Z,8.23
2018-05-11T17:36:07.458Z,8.83
2018-05-11T17:38:33.864Z,8.67
2018-05-11T17:41:00.985Z,8.63
2018-05-11T17:43:27.405Z,8.70
2018-05-11T17:45:53.812Z,8.80
2018-05-11T17:48:20.244Z,9.00
2018-05-11T17:50:46.631Z,8.97
2018-05-11T17:53:13.015Z,9.63
2018-05-11T17:55:39.418Z,9.20
2018-05-11T17:58:06.585Z,9.37
2018-05-11T18:00:33.745Z,9.30
2018-05-11T18:03:00.218Z,8.97
2018-05-11T18:05:27.310Z,9.30
2018-05-11T18:07:54.455Z,9.50
2018-05-11T18:10:21.708Z,11.97
2018-05-11T18:12:48.764Z,9.80
2018-05-11T18:15:15.884Z,10.13
2018-05-11T18:17:42.293Z,9.73
2018-05-11T18:20:08.665Z,10.53
